Time;durP1;ratioP1;P1;durP2;ratioP2;P2;SDS_P1;SDS_P2;PMS_P1;PMS_P2;Temp;Humidity;BMP_temperature;BMP_pressure;BME280_temperature;BME280_humidity;BME280_pressure;Samples;Min_cycle;Max_cycle;Signal;HPM_P1;HPM_P2
2022/06/26 00:00:25;;;;;;;;;;;;;;;;;;10456478;28;19925;-68
2022/06/26 00:05:27;;;;;;;;;;;;;;;;;;10473745;28;19924;-67
2022/06/26 00:10:29;;;;;;;;;;;;;;;;;;10464200;28;19924;-67
2022/06/26 00:15:31;;;;;;;;;;;;;;;;;;10458295;28;19929;-66
2022/06/26 00:20:33;;;;;;;;;;;;;;;;;;10482452;28;20425;-67
2022/06/26 00:25:35;;;;;;;;;;;;;;;;;;10476258;28;20283;-67
2022/06/26 00:30:37;;;;;;;;;;;;;;;;;;10464689;28;19925;-67
2022/06/26 00:35:39;;;;;;;;;;;;;;;;;;10476784;28;19931;-67
2022/06/26 00:40:42;;;;;;;;;;;;;;;;;;10463909;28;19929;-68
2022/06/26 00:45:44;;;;;;;;;;;;;;;;;;10477385;28;19928;-67
2022/06/26 00:50:46;;;;;;;;;;;;;;;;;;10493957;28;20297;-67
2022/06/26 00:55:48;;;;;;;;;;;;;;;;;;10479683;28;19925;-68
2022/06/26 01:00:51;;;;;;;;;;;;;;;;;;10504958;28;19928;-68
2022/06/26 01:05:53;;;;;;;;;;;;;;;;;;10488607;28;19932;-67
2022/06/26 01:10:55;;;;;;;;;;;;;;;;;;10475263;28;19931;-67
2022/06/26 01:15:57;;;;;;;;;;;;;;;;;;10479256;28;19925;-67
2022/06/26 01:20:59;;;;;;;;;;;;;;;;;;10482057;28;19990;-67
2022/06/26 01:26:01;;;;;;;;;;;;;;;;;;10473914;28;19928;-67
2022/06/26 01:31:03;;;;;;;;;;;;;;;;;;10461662;28;19925;-67
2022/06/26 01:36:06;;;;;;;;;;;;;;;;;;10482409;28;19947;-67
2022/06/26 01:41:08;;;;;;;;;;;;;;;;;;10499245;28;19924;-66
2022/06/26 01:46:10;;;;;;;;;;;;;;;;;;10475436;28;20386;-66
2022/06/26 01:51:12;;;;;;;;;;;;;;;;;;10502314;28;20425;-66
2022/06/26 01:56:14;;;;;;;;;;;;;;;;;;10480577;28;19927;-66
2022/06/26 02:01:16;;;;;;;;;;;;;;;;;;10472805;28;20372;-66
2022/06/26 02:06:18;;;;;;;;;;;;;;;;;;10481275;28;19975;-66
2022/06/26 02:16:42;;;;;;;;;;;;;;;;;;10485646;28;19952;-66
2022/06/26 02:21:45;;;;;;;;;;;;;;;;;;10460228;28;19925;-66
2022/06/26 02:26:47;;;;;;;;;;;;;;;;;;10461345;28;19924;-66
2022/06/26 02:31:49;;;;;;;;;;;;;;;;;;10461059;28;19924;-66
2022/06/26 02:36:51;;;;;;;;;;;;;;;;;;10470213;28;19928;-66
2022/06/26 02:41:53;;;;;;;;;;;;;;;;;;10458518;28;19925;-66
2022/06/26 02:46:55;;;;;;;;;;;;;;;;;;10486532;28;19925;-66
2022/06/26 02:51:57;;;;;;;;;;;;;;;;;;10475681;28;20375;-66
2022/06/26 02:56:59;;;;;;;;;;;;;;;;;;10459075;28;19931;-66
2022/06/26 03:02:01;;;;;;;;;;;;;;;;;;10458609;28;19933;-66
2022/06/26 03:07:03;;;;;;;;;;;;;;;;;;10475208;28;19929;-66
2022/06/26 03:12:05;;;;;;;;;;;;;;;;;;10463134;28;19924;-66
2022/06/26 03:17:07;;;;;;;;;;;;;;;;;;10492715;28;19931;-66
2022/06/26 03:22:10;;;;;;;;;;;;;;;;;;10499389;28;19974;-66
2022/06/26 03:27:12;;;;;;;;;;;;;;;;;;10466162;28;19939;-66
2022/06/26 03:32:14;;;;;;;;;;;;;;;;;;10457791;28;19931;-66
2022/06/26 03:37:16;;;;;;;;;;;;;;;;;;10457910;28;19929;-66
2022/06/26 03:42:18;;;;;;;;;;;;;;;;;;10461977;28;19925;-66
2022/06/26 03:47:20;;;;;;;;;;;;;;;;;;10479782;28;20299;-67
2022/06/26 03:52:22;;;;;;;;;;;;;;;;;;10496133;28;20386;-66
2022/06/26 03:57:24;;;;;;;;;;;;;;;;;;10470415;28;20386;-66
2022/06/26 04:02:26;;;;;;;;;;;;;;;;;;10483165;28;19925;-67
2022/06/26 04:07:29;;;;;;;;;;;;;;;;;;10510655;28;19924;-66
2022/06/26 04:12:31;;;;;;;;;;;;;;;;;;10506101;28;20376;-66
2022/06/26 04:17:33;;;;;;;;;;;;;;;;;;10482909;28;19925;-67
2022/06/26 04:22:35;;;;;;;;;;;;;;;;;;10475243;28;19928;-66
2022/06/26 04:27:37;;;;;;;;;;;;;;;;;;10509571;28;20425;-67
2022/06/26 04:32:39;;;;;;;;;;;;;;;;;;10502696;28;19925;-67
2022/06/26 04:37:42;;;;;;;;;;;;;;;;;;10470228;28;19929;-67
2022/06/26 04:42:44;;;;;;;;;;;;;;;;;;10470037;28;19954;-66
2022/06/26 04:47:46;;;;;;;;;;;;;;;;;;10471045;28;19932;-67
2022/06/26 04:52:49;;;;;;;;;;;;;;;;;;10492679;28;19928;-67
2022/06/26 04:57:51;;;;;;;;;;;;;;;;;;10511326;28;19928;-67
2022/06/26 05:02:53;;;;;;;;;;;;;;;;;;10499227;28;19924;-67
2022/06/26 05:07:56;;;;;;;;;;;;;;;;;;10473396;28;19925;-67
2022/06/26 05:12:58;;;;;;;;;;;;;;;;;;10463225;28;19924;-70
2022/06/26 05:18:00;;;;;;;;;;;;;;;;;;10462849;28;19925;-70
2022/06/26 05:23:02;;;;;;;;;;;;;;;;;;10471971;28;19969;-69
2022/06/26 05:28:04;;;;;;;;;;;;;;;;;;10471938;28;20402;-70
2022/06/26 05:33:06;;;;;;;;;;;;;;;;;;10491184;28;19931;-70
2022/06/26 05:38:08;;;;;;;;;;;;;;;;;;10461988;28;20265;-69
2022/06/26 05:43:10;;;;;;;;;;;;;;;;;;10473099;28;19929;-70
2022/06/26 05:48:12;;;;;;;;;;;;;;;;;;10462017;28;20303;-70
2022/06/26 05:53:14;;;;;;;;;;;;;;;;;;10476705;28;19932;-70
2022/06/26 05:58:16;;;;;;;;;;;;;;;;;;10491150;28;19932;-69
2022/06/26 06:03:18;;;;;;;;;;;;;;;;;;10460980;28;19929;-69
2022/06/26 06:08:20;;;;;;;;;;;;;;;;;;10489041;28;19924;-70
2022/06/26 06:13:22;;;;;;;;;;;;;;;;;;10502067;28;19935;-69
2022/06/26 06:18:24;;;;;;;;;;;;;;;;;;10478527;28;20291;-70
2022/06/26 06:23:27;;;;;;;;;;;;;;;;;;10500951;28;19925;-69
2022/06/26 06:28:29;;;;;;;;;;;;;;;;;;10498127;28;19924;-69
2022/06/26 06:33:31;;;;;;;;;;;;;;;;;;10489574;28;19924;-69
2022/06/26 06:38:33;;;;;;;;;;;;;;;;;;10461631;28;19929;-70
2022/06/26 06:43:35;;;;;;;;;;;;;;;;;;10486628;28;19924;-70
2022/06/26 06:48:37;;;;;;;;;;;;;;;;;;10475426;28;19925;-70
2022/06/26 06:53:39;;;;;;;;;;;;;;;;;;10466964;28;19925;-70
2022/06/26 06:58:41;;;;;;;;;;;;;;;;;;10458660;28;19931;-70
2022/06/26 07:03:43;;;;;;;;;;;;;;;;;;10460809;28;19929;-70
2022/06/26 07:08:45;;;;;;;;;;;;;;;;;;10467898;28;19925;-70
2022/06/26 07:13:47;;;;;;;;;;;;;;;;;;10457764;28;19932;-70
2022/06/26 07:18:49;;;;;;;;;;;;;;;;;;10458733;28;20355;-70
2022/06/26 07:23:52;;;;;;;;;;;;;;;;;;10470175;28;19925;-70
2022/06/26 07:28:54;;;;;;;;;;;;;;;;;;10458425;28;19929;-70
2022/06/26 07:34:16;;;;;;;;;;;;;;;;;;10458831;28;19925;-70
2022/06/26 07:39:18;;;;;;;;;;;;;;;;;;10458718;28;20134;-70
2022/06/26 07:44:20;;;;;;;;;;;;;;;;;;10467938;28;19933;-70
2022/06/26 07:49:22;;;;;;;;;;;;;;;;;;10458318;28;19925;-70
2022/06/26 07:54:24;;;;;;;;;;;;;;;;;;10458626;28;19932;-70
2022/06/26 07:59:26;;;;;;;;;;;;;;;;;;10468721;28;20380;-70
2022/06/26 08:04:28;;;;;;;;;;;;;;;;;;10455210;28;20368;-70
2022/06/26 08:09:31;;;;;;;;;;;;;;;;;;10469570;28;19971;-70
2022/06/26 08:14:33;;;;;;;;;;;;;;;;;;10466070;28;19924;-70
2022/06/26 08:19:35;;;;;;;;;;;;;;;;;;10461525;28;19931;-70
2022/06/26 08:24:39;;;;;;;;;;;;;;;;;;10473917;28;19994;-70
2022/06/26 08:29:41;;;;;;;;;;;;;;;;;;10495339;28;19931;-70
2022/06/26 08:34:43;;;;;;;;;;;;;;;;;;10462426;28;19936;-70
2022/06/26 08:39:45;;;;;;;;;;;;;;;;;;10470165;28;20295;-70
2022/06/26 08:44:47;;;;;;;;;;;;;;;;;;10488582;28;19948;-70
2022/06/26 08:49:49;;;;;;;;;;;;;;;;;;10477339;28;19932;-70
2022/06/26 08:54:51;;;;;;;;;;;;;;;;;;10463686;28;19931;-70
2022/06/26 08:59:59;;;;;;;;;;;;;;;;;;10475996;28;20391;-70
2022/06/26 09:05:01;;;;;;;;;;;;;;;;;;10501511;28;19932;-70
2022/06/26 09:10:03;;;;;;;;;;;;;;;;;;10472533;28;19933;-70
2022/06/26 09:15:05;;;;;;;;;;;;;;;;;;10489721;28;19925;-70
2022/06/26 09:20:07;;;;;;;;;;;;;;;;;;10464385;28;19929;-70
2022/06/26 09:25:09;;;;;;;;;;;;;;;;;;10474798;28;19925;-70
2022/06/26 09:30:11;;;;;;;;;;;;;;;;;;10479495;28;19939;-70
2022/06/26 09:35:17;;;;;;;;;;;;;;;;;;10441458;28;19955;-70
2022/06/26 09:40:19;;;;;;;;;;;;;;;;;;10473907;28;20371;-69
2022/06/26 09:45:21;;;;;;;;;;;;;;;;;;10464137;28;19924;-70
2022/06/26 09:50:23;;;;;;;;;;;;;;;;;;10476740;28;19943;-70
2022/06/26 09:55:25;;;;;;;;;;;;;;;;;;10460309;28;19932;-69
2022/06/26 10:00:29;;;;;;;;;;;;;;;;;;10477654;28;19924;-70
2022/06/26 10:06:25;;;;;;;;;;;;;;;;;;10501505;28;19931;-70
2022/06/26 10:11:05;;;;;;;;;;;;;;;;;;10429954;28;19925;-70
2022/06/26 10:16:07;;;;;;;;;;;;;;;;;;10472794;28;19925;-70
2022/06/26 10:21:09;;;;;;;;;;;;;;;;;;10471051;28;19977;-70
2022/06/26 10:26:12;;;;;;;;;;;;;;;;;;10500915;28;20391;-70
2022/06/26 10:31:14;;;;;;;;;;;;;;;;;;10480255;28;19928;-70
2022/06/26 10:36:16;;;;;;;;;;;;;;;;;;10464001;28;19925;-69
2022/06/26 10:46:39;;;;;;;;;;;;;;;;;;10495477;28;19931;-69
2022/06/26 10:51:41;;;;;;;;;;;;;;;;;;10462475;28;19947;-69
2022/06/26 10:56:43;;;;;;;;;;;;;;;;;;10458995;28;19944;-69
2022/06/26 11:01:45;;;;;;;;;;;;;;;;;;10460949;28;19932;-69
2022/06/26 11:06:48;;;;;;;;;;;;;;;;;;10463399;28;19925;-69
2022/06/26 11:11:50;;;;;;;;;;;;;;;;;;10466363;28;19933;-69
2022/06/26 11:16:52;;;;;;;;;;;;;;;;;;10471827;28;20288;-69
2022/06/26 11:21:54;;;;;;;;;;;;;;;;;;10461849;28;19928;-69
2022/06/26 11:26:56;;;;;;;;;;;;;;;;;;10457193;28;20283;-69
2022/06/26 11:31:58;;;;;;;;;;;;;;;;;;10457995;28;19932;-69
2022/06/26 11:37:01;;;;;;;;;;;;;;;;;;10451937;28;20250;-69
2022/06/26 11:42:03;;;;;;;;;;;;;;;;;;10462865;28;19933;-69
2022/06/26 11:47:05;;;;;;;;;;;;;;;;;;10450213;28;19935;-69
2022/06/26 11:52:07;;;;;;;;;;;;;;;;;;10451516;28;20409;-69
2022/06/26 11:57:10;;;;;;;;;;;;;;;;;;10467847;22;19925;-69
2022/06/26 12:02:12;;;;;;;;;;;;;;;;;;10450278;28;19928;-70
2022/06/26 12:07:14;;;;;;;;;;;;;;;;;;10466976;28;19928;-68
2022/06/26 12:12:17;;;;;;;;;;;;;;;;;;10470228;28;19928;-68
2022/06/26 12:17:19;;;;;;;;;;;;;;;;;;10458685;28;19933;-68
2022/06/26 12:22:21;;;;;;;;;;;;;;;;;;10457515;28;20394;-68
2022/06/26 12:27:23;;;;;;;;;;;;;;;;;;10459052;28;19928;-68
2022/06/26 12:32:25;;;;;;;;;;;;;;;;;;10469630;28;20391;-68
2022/06/26 12:37:27;;;;;;;;;;;;;;;;;;10458171;28;20291;-62
2022/06/26 12:42:29;;;;;;;;;;;;;;;;;;10456943;28;19936;-62
2022/06/26 12:47:31;;;;;;;;;;;;;;;;;;10463995;28;20302;-62
2022/06/26 12:52:34;;;;;;;;;;;;;;;;;;10461752;28;19928;-62
2022/06/26 12:57:36;;;;;;;;;;;;;;;;;;10457587;28;19936;-62
2022/06/26 13:02:38;;;;;;;;;;;;;;;;;;10456998;28;19928;-62
2022/06/26 13:07:41;;;;;;;;;;;;;;;;;;10468263;28;19928;-62
2022/06/26 13:12:43;;;;;;;;;;;;;;;;;;10474853;28;19932;-62
2022/06/26 13:17:46;;;;;;;;;;;;;;;;;;10495187;28;20261;-62
2022/06/26 13:22:48;;;;;;;;;;;;;;;;;;10483099;28;19924;-62
2022/06/26 13:27:51;;;;;;;;;;;;;;;;;;10461161;28;19925;-62
2022/06/26 13:32:53;;;;;;;;;;;;;;;;;;10463656;28;19924;-62
2022/06/26 13:37:55;;;;;;;;;;;;;;;;;;10486269;28;19940;-62
2022/06/26 13:42:57;;;;;;;;;;;;;;;;;;10463192;28;19931;-62
2022/06/26 13:47:59;;;;;;;;;;;;;;;;;;10485875;28;20391;-62
2022/06/26 13:53:01;;;;;;;;;;;;;;;;;;10502336;28;19931;-62
2022/06/26 13:58:03;;;;;;;;;;;;;;;;;;10476992;28;19924;-62
2022/06/26 14:03:05;;;;;;;;;;;;;;;;;;10461307;28;19935;-62
2022/06/26 14:08:07;;;;;;;;;;;;;;;;;;10488472;28;19926;-62
2022/06/26 14:13:10;;;;;;;;;;;;;;;;;;10492470;28;19925;-62
2022/06/26 14:18:12;;;;;;;;;;;;;;;;;;10460116;28;19947;-62
2022/06/26 14:28:35;;;;;;;;;;;;;;;;;;10460682;28;19925;-62
2022/06/26 14:33:37;;;;;;;;;;;;;;;;;;10471566;28;19947;-63
2022/06/26 14:38:39;;;;;;;;;;;;;;;;;;10492586;28;19924;-62
2022/06/26 14:43:44;;;;;;;;;;;;;;;;;;10500233;28;20393;-62
2022/06/26 14:48:46;;;;;;;;;;;;;;;;;;10477334;28;20031;-62
2022/06/26 14:53:48;;;;;;;;;;;;;;;;;;10458598;28;20372;-62
2022/06/26 14:58:55;;;;;;;;;;;;;;;;;;10492283;28;19925;-62
2022/06/26 15:03:57;;;;;;;;;;;;;;;;;;10494398;28;19924;-62
2022/06/26 15:08:59;;;;;;;;;;;;;;;;;;10458649;28;19971;-62
2022/06/26 15:14:01;;;;;;;;;;;;;;;;;;10458338;28;20380;-62
2022/06/26 15:19:03;;;;;;;;;;;;;;;;;;10496320;28;19924;-62
2022/06/26 15:24:05;;;;;;;;;;;;;;;;;;10468351;28;19929;-62
2022/06/26 15:29:08;;;;;;;;;;;;;;;;;;10496625;28;19924;-62
2022/06/26 15:34:10;;;;;;;;;;;;;;;;;;10499302;28;19924;-62
2022/06/26 15:39:12;;;;;;;;;;;;;;;;;;10482618;28;19932;-62
2022/06/26 15:44:14;;;;;;;;;;;;;;;;;;10457550;28;19925;-70
2022/06/26 15:49:16;;;;;;;;;;;;;;;;;;10496017;28;20355;-69
2022/06/26 15:54:18;;;;;;;;;;;;;;;;;;10496518;28;20375;-62
2022/06/26 15:59:20;;;;;;;;;;;;;;;;;;10459619;28;19925;-62
2022/06/26 16:04:22;;;;;;;;;;;;;;;;;;10457256;28;19925;-63
2022/06/26 16:09:25;;;;;;;;;;;;;;;;;;10456440;28;19925;-63
2022/06/26 16:14:27;;;;;;;;;;;;;;;;;;10458170;28;19924;-63
2022/06/26 16:19:29;;;;;;;;;;;;;;;;;;10456336;28;19928;-63
2022/06/26 16:29:52;;;;;;;;;;;;;;;;;;10488103;28;19932;-63
2022/06/26 16:34:54;;;;;;;;;;;;;;;;;;10491468;28;19925;-63
2022/06/26 16:39:56;;;;;;;;;;;;;;;;;;10497333;28;20368;-63
2022/06/26 16:44:58;;;;;;;;;;;;;;;;;;10496058;28;19961;-63
2022/06/26 16:50:00;;;;;;;;;;;;;;;;;;10462057;28;19932;-63
2022/06/26 16:55:02;;;;;;;;;;;;;;;;;;10455798;28;19924;-63
2022/06/26 17:00:04;;;;;;;;;;;;;;;;;;10455789;28;19925;-63
2022/06/26 17:05:06;;;;;;;;;;;;;;;;;;10483043;28;20303;-63
2022/06/26 17:10:08;;;;;;;;;;;;;;;;;;10462689;28;20363;-63
2022/06/26 17:15:11;;;;;;;;;;;;;;;;;;10492561;28;20280;-63
2022/06/26 17:20:13;;;;;;;;;;;;;;;;;;10500538;28;19932;-63
2022/06/26 17:25:15;;;;;;;;;;;;;;;;;;10471825;28;19924;-63
2022/06/26 17:30:18;;;;;;;;;;;;;;;;;;10503955;28;19928;-63
2022/06/26 17:35:20;;;;;;;;;;;;;;;;;;10501836;28;19932;-63
2022/06/26 17:40:22;;;;;;;;;;;;;;;;;;10474313;28;19948;-63
2022/06/26 17:45:24;;;;;;;;;;;;;;;;;;10484602;28;19939;-63
2022/06/26 17:50:26;;;;;;;;;;;;;;;;;;10502630;28;20344;-63
2022/06/26 17:55:28;;;;;;;;;;;;;;;;;;10491564;28;19925;-63
2022/06/26 18:00:30;;;;;;;;;;;;;;;;;;10461133;28;19932;-63
2022/06/26 18:05:33;;;;;;;;;;;;;;;;;;10497791;28;19931;-64
2022/06/26 18:10:35;;;;;;;;;;;;;;;;;;10502272;28;20279;-63
2022/06/26 18:15:40;;;;;;;;;;;;;;;;;;10472531;28;19932;-63
2022/06/26 18:20:42;;;;;;;;;;;;;;;;;;10465157;28;19925;-63
2022/06/26 18:25:45;;;;;;;;;;;;;;;;;;10501671;28;19932;-63
2022/06/26 18:30:47;;;;;;;;;;;;;;;;;;10477537;28;19935;-63
2022/06/26 18:35:49;;;;;;;;;;;;;;;;;;10460107;28;19924;-63
2022/06/26 18:40:51;;;;;;;;;;;;;;;;;;10459069;28;20296;-63
2022/06/26 18:45:56;;;;;;;;;;;;;;;;;;10464160;28;19924;-63
2022/06/26 18:50:58;;;;;;;;;;;;;;;;;;10465767;28;19929;-63
2022/06/26 18:56:00;;;;;;;;;;;;;;;;;;10459702;28;19932;-63
2022/06/26 19:01:02;;;;;;;;;;;;;;;;;;10472572;28;20356;-63
2022/06/26 19:06:06;;;;;;;;;;;;;;;;;;10457583;28;19976;-63
2022/06/26 19:16:49;;;;;;;;;;;;;;;;;;10458447;28;19925;-63
2022/06/26 19:21:51;;;;;;;;;;;;;;;;;;10461262;28;20411;-63
2022/06/26 19:26:54;;;;;;;;;;;;;;;;;;10456740;28;20360;-63
2022/06/26 19:31:56;;;;;;;;;;;;;;;;;;10464796;28;19925;-63
2022/06/26 19:36:58;;;;;;;;;;;;;;;;;;10495607;28;19928;-63
2022/06/26 19:47:24;;;;;;;;;;;;;;;;;;10457391;28;19924;-63
2022/06/26 19:52:26;;;;;;;;;;;;;;;;;;10457461;28;19925;-63
2022/06/26 19:57:28;;;;;;;;;;;;;;;;;;10469261;28;19928;-63
2022/06/26 20:02:30;;;;;;;;;;;;;;;;;;10457670;28;20257;-63
2022/06/26 20:07:36;;;;;;;;;;;;;;;;;;10457059;28;19932;-63
2022/06/26 20:12:38;;;;;;;;;;;;;;;;;;10469241;28;19945;-63
2022/06/26 20:17:41;;;;;;;;;;;;;;;;;;10461392;28;20299;-63
2022/06/26 20:22:43;;;;;;;;;;;;;;;;;;10498290;28;19924;-63
2022/06/26 20:27:45;;;;;;;;;;;;;;;;;;10496380;28;19925;-63
2022/06/26 20:32:47;;;;;;;;;;;;;;;;;;10457797;28;19925;-63
2022/06/26 20:37:51;;;;;;;;;;;;;;;;;;10460987;28;20294;-63
2022/06/26 20:42:53;;;;;;;;;;;;;;;;;;10464309;28;19925;-63
2022/06/26 20:47:56;;;;;;;;;;;;;;;;;;10476233;28;19932;-63
2022/06/26 20:52:58;;;;;;;;;;;;;;;;;;10473023;28;19932;-63
2022/06/26 20:58:00;;;;;;;;;;;;;;;;;;10475357;28;20326;-63
2022/06/26 21:03:03;;;;;;;;;;;;;;;;;;10467199;28;19925;-63
2022/06/26 21:08:05;;;;;;;;;;;;;;;;;;10463238;28;19931;-63
2022/06/26 21:13:07;;;;;;;;;;;;;;;;;;10463244;28;19925;-63
2022/06/26 21:18:09;;;;;;;;;;;;;;;;;;10462874;28;20295;-63
2022/06/26 21:23:11;;;;;;;;;;;;;;;;;;10475056;28;19925;-63
2022/06/26 21:28:13;;;;;;;;;;;;;;;;;;10462441;28;19925;-63
2022/06/26 21:33:15;;;;;;;;;;;;;;;;;;10462481;28;19925;-63
2022/06/26 21:38:18;;;;;;;;;;;;;;;;;;10474058;28;19929;-63
2022/06/26 21:43:20;;;;;;;;;;;;;;;;;;10461501;28;20295;-63
2022/06/26 21:48:22;;;;;;;;;;;;;;;;;;10495228;28;19931;-63
2022/06/26 21:53:24;;;;;;;;;;;;;;;;;;10500386;28;19924;-63
2022/06/26 21:58:26;;;;;;;;;;;;;;;;;;10461060;28;19957;-63
2022/06/26 22:03:28;;;;;;;;;;;;;;;;;;10460746;28;19951;-63
2022/06/26 22:08:30;;;;;;;;;;;;;;;;;;10469637;28;19970;-63
2022/06/26 22:13:33;;;;;;;;;;;;;;;;;;10474450;28;19925;-63
2022/06/26 22:18:36;;;;;;;;;;;;;;;;;;10460139;28;20315;-63
2022/06/26 22:23:38;;;;;;;;;;;;;;;;;;10460556;28;19924;-63
2022/06/26 22:28:40;;;;;;;;;;;;;;;;;;10471115;28;20287;-63
2022/06/26 22:33:42;;;;;;;;;;;;;;;;;;10459995;28;19971;-63
2022/06/26 22:38:44;;;;;;;;;;;;;;;;;;10459885;28;19928;-63
2022/06/26 22:43:46;;;;;;;;;;;;;;;;;;10464756;28;19925;-63
2022/06/26 22:48:48;;;;;;;;;;;;;;;;;;10462561;28;20399;-63
2022/06/26 22:53:50;;;;;;;;;;;;;;;;;;10458426;28;19932;-63
2022/06/26 22:58:52;;;;;;;;;;;;;;;;;;10460067;28;19925;-62
2022/06/26 23:03:54;;;;;;;;;;;;;;;;;;10487377;28;19933;-63
2022/06/26 23:08:56;;;;;;;;;;;;;;;;;;10492316;28;19931;-64
2022/06/26 23:13:59;;;;;;;;;;;;;;;;;;10499294;28;19928;-64
2022/06/26 23:19:01;;;;;;;;;;;;;;;;;;10494835;28;19963;-64
2022/06/26 23:24:03;;;;;;;;;;;;;;;;;;10458396;28;19924;-64
2022/06/26 23:29:05;;;;;;;;;;;;;;;;;;10485421;28;19932;-64
2022/06/26 23:34:07;;;;;;;;;;;;;;;;;;10498120;28;20413;-64
2022/06/26 23:39:09;;;;;;;;;;;;;;;;;;10468199;28;19925;-64
2022/06/26 23:44:11;;;;;;;;;;;;;;;;;;10457542;28;19940;-64
2022/06/26 23:49:13;;;;;;;;;;;;;;;;;;10457027;28;20296;-64
2022/06/26 23:54:16;;;;;;;;;;;;;;;;;;10469526;28;19924;-64
2022/06/26 23:59:18;;;;;;;;;;;;;;;;;;10457200;28;19936;-64
